createdAt,value
2018-06-03T00:02:18.673Z,100101.69
2018-06-03T00:04:49.502Z,100100.22
2018-06-03T00:07:21.113Z,100104.29
2018-06-03T00:09:51.844Z,100107.09
2018-06-03T00:12:22.695Z,100106.94
2018-06-03T00:14:55.346Z,100105.45
2018-06-03T00:17:26.989Z,100103.92
2018-06-03T00:19:58.621Z,100104.45
2018-06-03T00:22:32.406Z,100112.40
2018-06-03T00:25:06.280Z,100112.26
2018-06-03T00:27:39.985Z,100112.14
2018-06-03T00:30:13.679Z,100115.11
2018-06-03T00:32:45.145Z,100114.17
2018-06-03T00:35:16.450Z,100108.42
2018-06-03T00:37:49.511Z,100113.55
2018-06-03T00:40:21.644Z,100115.80
2018-06-03T00:42:53.036Z,100109.33
2018-06-03T00:45:24.746Z,100111.27
2018-06-03T00:47:56.068Z,100112.26
2018-06-03T00:50:28.276Z,100115.86
2018-06-03T00:52:59.658Z,100102.59
2018-06-03T00:55:32.891Z,100103.64
2018-06-03T00:58:04.341Z,100105.19
2018-06-03T01:00:38.622Z,100103.52
2018-06-03T01:03:11.919Z,100103.47
2018-06-03T01:05:45.953Z,100089.98
2018-06-03T01:08:17.268Z,100095.55
2018-06-03T01:10:49.493Z,100096.12
2018-06-03T01:13:21.777Z,100096.81
2018-06-03T01:15:54.092Z,100094.39
2018-06-03T01:18:26.281Z,100090.17
2018-06-03T01:20:59.490Z,100086.83
2018-06-03T01:23:33.038Z,100086.31
2018-06-03T01:26:07.200Z,100085.38
2018-06-03T01:28:40.732Z,100085.20
2018-06-03T01:31:12.870Z,100080.98
2018-06-03T01:33:44.321Z,100077.73
2018-06-03T01:36:16.497Z,100078.52
2018-06-03T01:38:50.851Z,100073.63
2018-06-03T01:41:24.737Z,100077.95
2018-06-03T01:43:56.122Z,100073.97
2018-06-03T01:46:30.374Z,100072.18
2018-06-03T01:49:41.266Z,100071.16
2018-06-03T01:52:13.537Z,100071.78
2018-06-03T01:54:46.795Z,100069.03
2018-06-03T01:57:19.911Z,100069.11
2018-06-03T01:59:53.105Z,100064.67
2018-06-03T02:02:26.999Z,100070.31
2018-06-03T02:05:00.381Z,100060.50
2018-06-03T02:07:33.377Z,100059.92
2018-06-03T02:10:07.322Z,100059.09
2018-06-03T02:12:40.712Z,100057.95
2018-06-03T02:15:16.012Z,100056.48
2018-06-03T02:17:49.326Z,100056.91
2018-06-03T02:20:21.785Z,100048.25
2018-06-03T02:22:54.923Z,100054.72
2018-06-03T02:25:28.906Z,100055.02
2018-06-03T02:28:01.096Z,100050.70
2018-06-03T02:30:34.484Z,100048.64
2018-06-03T02:33:06.696Z,100059.12
2018-06-03T02:35:40.597Z,100048.41
2018-06-03T02:38:13.140Z,100060.62
2018-06-03T02:40:45.306Z,100054.09
2018-06-03T02:43:18.503Z,100056.77
2018-06-03T02:45:51.870Z,100056.27
2018-06-03T02:48:24.050Z,100061.45
2018-06-03T02:50:56.337Z,100063.45
2018-06-03T02:53:29.514Z,100067.34
2018-06-03T02:56:03.274Z,100058.09
2018-06-03T02:58:34.886Z,100054.03
2018-06-03T03:01:07.086Z,100054.36
2018-06-03T03:03:40.287Z,100059.94
2018-06-03T03:06:13.331Z,100056.33
2018-06-03T03:08:44.823Z,100055.91
2018-06-03T03:11:17.306Z,100059.53
2018-06-03T03:13:49.601Z,100063.25
2018-06-03T03:16:23.964Z,100060.16
2018-06-03T03:18:58.161Z,100064.61
2018-06-03T03:21:30.836Z,100063.08
2018-06-03T03:24:04.316Z,100069.78
2018-06-03T03:26:37.877Z,100075.26
2018-06-03T03:29:09.780Z,100069.89
2018-06-03T03:31:41.588Z,100062.25
2018-06-03T03:34:15.461Z,100070.27
2018-06-03T03:36:49.756Z,100073.41
2018-06-03T03:39:24.401Z,100072.11
2018-06-03T03:41:58.190Z,100075.47
2018-06-03T03:44:29.653Z,100073.49
2018-06-03T03:47:02.059Z,100078.30
2018-06-03T03:49:33.361Z,100077.43
2018-06-03T03:52:04.648Z,100075.85
2018-06-03T03:54:37.164Z,100080.48
2018-06-03T03:57:09.103Z,100076.24
2018-06-03T03:59:40.462Z,100076.03
2018-06-03T04:02:10.822Z,100071.88
2018-06-03T04:04:42.178Z,100080.38
2018-06-03T04:07:14.829Z,100071.25
2018-06-03T04:09:45.256Z,100077.05
2018-06-03T04:12:17.562Z,100071.90
2018-06-03T04:14:49.807Z,100074.95
2018-06-03T04:17:22.131Z,100071.19
2018-06-03T04:19:54.720Z,100078.14
2018-06-03T04:22:26.125Z,100079.38
2018-06-03T04:24:57.559Z,100078.75
2018-06-03T04:27:30.334Z,100083.66
2018-06-03T04:30:01.726Z,100067.82
2018-06-03T04:32:35.863Z,100079.85
2018-06-03T04:35:08.277Z,100082.53
2018-06-03T04:37:39.579Z,100092.45
2018-06-03T04:40:12.830Z,100089.88
2018-06-03T04:42:44.125Z,100085.22
2018-06-03T04:45:16.914Z,100085.27
2018-06-03T04:47:49.121Z,100085.67
2018-06-03T04:50:21.797Z,100090.37
2018-06-03T04:52:54.022Z,100094.52
2018-06-03T04:55:25.381Z,100095.63
2018-06-03T04:57:57.869Z,100102.55
2018-06-03T05:00:30.182Z,100101.43
2018-06-03T05:03:01.326Z,100108.41
2018-06-03T05:05:34.894Z,100112.06
2018-06-03T05:08:08.894Z,100111.84
2018-06-03T05:10:40.169Z,100111.53
2018-06-03T05:13:12.082Z,100108.78
2018-06-03T05:15:43.312Z,100104.31
2018-06-03T05:18:15.208Z,100115.26
2018-06-03T05:20:46.626Z,100116.81
2018-06-03T05:23:18.519Z,100117.88
2018-06-03T05:25:49.823Z,100112.34
2018-06-03T05:28:21.177Z,100117.95
2018-06-03T05:30:53.761Z,100118.80
2018-06-03T05:33:25.234Z,100113.09
2018-06-03T05:35:56.693Z,100113.63
2018-06-03T05:38:29.023Z,100115.17
2018-06-03T05:41:01.292Z,100121.03
2018-06-03T05:43:32.597Z,100123.59
2018-06-03T05:46:03.897Z,100120.42
2018-06-03T05:48:35.549Z,100120.45
2018-06-03T05:51:07.061Z,100130.66
2018-06-03T05:53:38.411Z,100130.33
2018-06-03T05:56:10.290Z,100138.38
2018-06-03T05:58:41.816Z,100138.02
2018-06-03T06:01:14.554Z,100141.46
2018-06-03T06:03:47.939Z,100135.70
2018-06-03T06:06:19.421Z,100141.78
2018-06-03T06:08:50.730Z,100135.90
2018-06-03T06:11:22.068Z,100139.27
2018-06-03T06:13:53.345Z,100140.05
2018-06-03T06:16:25.703Z,100142.75
2018-06-03T06:18:57.073Z,100143.46
2018-06-03T06:21:28.414Z,100131.34
2018-06-03T06:23:59.744Z,100144.31
2018-06-03T06:26:31.015Z,100144.16
2018-06-03T06:29:02.405Z,100134.39
2018-06-03T06:31:33.730Z,100136.17
2018-06-03T06:34:05.021Z,100142.06
2018-06-03T06:36:36.326Z,100143.98
2018-06-03T06:39:07.976Z,100143.00
2018-06-03T06:41:39.352Z,100141.17
2018-06-03T06:44:10.939Z,100135.74
2018-06-03T06:46:43.174Z,100151.38
2018-06-03T06:49:15.779Z,100151.48
2018-06-03T06:51:47.064Z,100155.55
2018-06-03T06:54:21.567Z,100156.81
2018-06-03T06:56:53.220Z,100157.80
2018-06-03T06:59:25.447Z,100146.52
2018-06-03T07:01:57.192Z,100161.95
2018-06-03T07:04:31.858Z,100146.83
2018-06-03T07:07:03.533Z,100146.98
2018-06-03T07:09:37.445Z,100146.45
2018-06-03T07:12:12.882Z,100140.84
2018-06-03T07:14:46.023Z,100125.17
2018-06-03T07:17:19.407Z,100148.14
2018-06-03T07:19:52.482Z,100150.00
2018-06-03T07:22:26.918Z,100147.36
2018-06-03T07:25:00.341Z,100085.19
2018-06-03T07:27:34.400Z,100145.54
2018-06-03T07:30:07.604Z,100148.47
2018-06-03T07:32:43.175Z,100140.48
2018-06-03T07:35:16.432Z,100140.07
2018-06-03T07:37:49.954Z,100140.17
2018-06-03T07:40:23.877Z,100138.42
2018-06-03T07:42:57.471Z,100141.08
2018-06-03T07:45:30.509Z,100130.91
2018-06-03T07:48:03.959Z,100136.36
2018-06-03T07:50:37.073Z,100135.03
2018-06-03T07:53:10.208Z,100135.22
2018-06-03T07:55:43.835Z,100140.78
2018-06-03T07:58:17.292Z,100137.11
2018-06-03T08:00:50.440Z,100133.05
2018-06-03T08:03:23.572Z,100128.95
2018-06-03T08:05:57.128Z,100140.56
2018-06-03T08:08:31.369Z,100135.48
2018-06-03T08:11:04.883Z,100121.87
2018-06-03T08:13:39.721Z,100124.13
2018-06-03T08:16:13.048Z,100124.30
2018-06-03T08:18:48.016Z,100128.80
2018-06-03T08:21:21.363Z,100127.56
2018-06-03T08:23:55.067Z,100127.48
2018-06-03T08:26:28.292Z,100131.75
2018-06-03T08:29:01.875Z,100127.70
2018-06-03T08:31:35.956Z,100122.74
2018-06-03T08:34:09.457Z,100125.17
2018-06-03T08:36:42.595Z,100103.08
2018-06-03T08:39:15.824Z,100124.23
2018-06-03T08:41:49.226Z,100122.33
2018-06-03T08:44:23.848Z,100116.30
2018-06-03T08:46:57.329Z,100113.05
2018-06-03T08:49:30.299Z,100109.21
2018-06-03T08:52:03.929Z,100113.81
2018-06-03T08:54:37.581Z,100116.48
2018-06-03T08:57:10.716Z,100113.90
2018-06-03T08:59:44.769Z,100122.96
2018-06-03T09:02:18.041Z,100119.23
2018-06-03T09:04:51.756Z,100118.09
2018-06-03T09:07:24.976Z,100115.53
2018-06-03T09:09:58.427Z,100117.17
2018-06-03T09:12:32.389Z,100115.78
2018-06-03T09:15:07.242Z,100112.61
2018-06-03T09:17:40.563Z,100102.61
2018-06-03T09:20:13.848Z,100105.64
2018-06-03T09:22:47.157Z,100105.47
2018-06-03T09:25:20.948Z,100100.44
2018-06-03T09:27:54.159Z,100087.81
2018-06-03T09:30:27.585Z,100095.60
2018-06-03T09:33:00.882Z,100094.56
2018-06-03T09:35:34.651Z,100096.89
2018-06-03T09:38:07.801Z,100091.30
2018-06-03T09:40:41.259Z,100088.31
2018-06-03T09:43:14.365Z,100080.95
2018-06-03T09:45:47.908Z,100077.95
2018-06-03T09:48:21.283Z,100086.59
2018-06-03T09:50:54.742Z,100071.16
2018-06-03T09:53:27.926Z,100076.73
2018-06-03T09:56:01.464Z,100070.97
2018-06-03T09:58:35.892Z,100069.30
2018-06-03T10:01:10.367Z,100066.45
2018-06-03T10:03:43.711Z,100070.55
2018-06-03T10:06:17.355Z,100065.80
2018-06-03T10:08:50.582Z,100061.58
2018-06-03T10:11:24.098Z,100065.92
2018-06-03T10:13:57.230Z,100060.73
2018-06-03T10:16:31.763Z,100059.90
2018-06-03T10:19:10.407Z,100059.00
2018-06-03T10:21:44.336Z,100053.58
2018-06-03T10:24:18.611Z,100054.22
2018-06-03T10:26:51.700Z,100051.19
2018-06-03T10:29:24.793Z,100051.92
2018-06-03T10:31:57.957Z,100048.67
2018-06-03T10:34:32.029Z,100051.26
2018-06-03T10:37:05.157Z,100047.44
2018-06-03T10:39:38.976Z,100032.74
2018-06-03T10:42:12.094Z,100037.49
2018-06-03T10:44:45.331Z,100033.63
2018-06-03T10:47:18.506Z,100041.91
2018-06-03T10:49:51.755Z,100030.81
2018-06-03T10:52:25.099Z,100036.45
2018-06-03T10:54:58.197Z,100030.97
2018-06-03T10:57:31.478Z,100032.25
2018-06-03T11:00:08.451Z,100032.12
2018-06-03T11:02:42.003Z,100040.00
2018-06-03T11:05:15.316Z,100032.14
2018-06-03T11:07:48.754Z,100022.79
2018-06-03T11:10:22.369Z,100027.33
2018-06-03T11:12:55.612Z,100022.27
2018-06-03T11:15:28.814Z,100018.23
2018-06-03T11:18:01.961Z,100018.50
2018-06-03T11:20:37.325Z,100017.82
2018-06-03T11:23:10.352Z,100015.62
2018-06-03T11:25:43.951Z,100007.63
2018-06-03T11:28:17.117Z,100010.11
2018-06-03T11:30:50.312Z,100004.18
2018-06-03T11:33:23.922Z,99999.38
2018-06-03T11:35:57.169Z,99999.77
2018-06-03T11:38:30.432Z,100008.14
2018-06-03T11:41:03.677Z,100003.52
2018-06-03T11:43:37.551Z,100009.06
2018-06-03T11:46:10.731Z,100007.28
2018-06-03T11:48:44.263Z,100004.26
2018-06-03T11:51:17.570Z,99999.39
2018-06-03T11:53:50.825Z,99997.66
2018-06-03T11:56:28.926Z,99995.20
2018-06-03T11:59:12.049Z,99997.61
2018-06-03T12:01:45.359Z,99998.25
2018-06-03T12:04:18.575Z,99999.88
2018-06-03T12:06:51.694Z,99987.05
2018-06-03T12:09:25.014Z,99983.81
2018-06-03T12:11:58.282Z,99984.09
2018-06-03T12:14:31.552Z,99988.52
2018-06-03T12:17:06.965Z,99982.22
2018-06-03T12:19:40.698Z,99985.14
2018-06-03T12:22:13.826Z,99977.23
2018-06-03T12:24:48.207Z,99969.92
2018-06-03T12:27:21.452Z,99971.00
2018-06-03T12:29:54.697Z,99971.56
2018-06-03T12:32:28.100Z,99970.95
2018-06-03T12:35:01.288Z,99968.00
2018-06-03T12:37:34.487Z,99962.10
2018-06-03T12:40:07.894Z,99964.08
2018-06-03T12:42:41.084Z,99959.45
2018-06-03T12:45:17.784Z,99960.64
2018-06-03T12:47:51.253Z,99954.16
2018-06-03T12:50:25.563Z,99947.13
2018-06-03T12:52:58.855Z,99947.56
2018-06-03T12:55:32.056Z,99949.15
2018-06-03T12:58:06.112Z,99940.39
2018-06-03T13:00:39.297Z,99941.19
2018-06-03T13:03:12.566Z,99941.25
2018-06-03T13:05:46.198Z,99938.68
2018-06-03T13:08:19.522Z,99946.46
2018-06-03T13:10:52.716Z,99940.37
2018-06-03T13:13:26.169Z,99937.56
2018-06-03T13:15:59.980Z,99934.76
2018-06-03T13:18:33.933Z,99937.45
2018-06-03T13:21:07.456Z,99930.42
2018-06-03T13:23:40.645Z,99929.95
2018-06-03T13:28:42.585Z,99919.88
2018-06-03T13:31:15.747Z,99923.69
2018-06-03T13:33:49.262Z,99920.66
2018-06-03T13:36:22.458Z,99912.70
2018-06-03T13:38:55.799Z,99912.95
2018-06-03T13:41:29.371Z,99914.20
2018-06-03T13:44:03.066Z,99903.47
2018-06-03T13:46:36.295Z,99905.75
2018-06-03T13:49:09.770Z,99909.95
2018-06-03T13:51:42.953Z,99898.31
2018-06-03T13:54:17.474Z,99896.95
2018-06-03T13:56:50.642Z,99888.23
2018-06-03T13:59:25.377Z,99877.77
2018-06-03T14:02:00.173Z,99878.92
2018-06-03T14:04:36.763Z,99880.89
2018-06-03T14:07:11.546Z,99878.80
2018-06-03T14:09:47.747Z,99870.27
2018-06-03T14:12:22.429Z,99869.09
2018-06-03T14:14:56.175Z,99867.45
2018-06-03T14:17:30.481Z,99863.75
2018-06-03T14:20:04.024Z,99857.36
2018-06-03T14:22:37.256Z,99854.84
2018-06-03T14:25:10.475Z,99855.58
2018-06-03T14:27:44.472Z,99856.37
2018-06-03T14:30:18.776Z,99847.14
2018-06-03T14:32:52.201Z,99852.17
2018-06-03T14:35:25.473Z,99852.16
2018-06-03T14:37:58.301Z,99845.89
2018-06-03T14:40:31.643Z,99845.57
2018-06-03T14:43:04.588Z,99840.62
2018-06-03T14:45:38.683Z,99842.92
2018-06-03T14:48:11.601Z,99838.75
2018-06-03T14:50:46.865Z,99835.41
2018-06-03T14:53:19.980Z,99829.13
2018-06-03T14:55:52.941Z,99824.77
2018-06-03T14:58:26.182Z,99817.01
2018-06-03T15:00:59.428Z,99816.42
2018-06-03T15:03:32.602Z,99811.47
2018-06-03T15:06:05.526Z,99802.09
2018-06-03T15:08:38.343Z,99802.57
2018-06-03T15:11:11.516Z,99801.38
2018-06-03T15:13:45.084Z,99791.66
2018-06-03T15:16:18.798Z,99792.02
2018-06-03T15:18:51.635Z,99790.77
2018-06-03T15:21:24.601Z,99784.38
2018-06-03T15:23:57.788Z,99779.20
2018-06-03T15:26:31.017Z,99786.83
2018-06-03T15:29:03.876Z,99781.74
2018-06-03T15:31:37.050Z,99775.34
2018-06-03T15:34:10.010Z,99769.86
2018-06-03T15:36:43.275Z,99774.72
2018-06-03T15:39:16.253Z,99771.47
2018-06-03T15:41:49.238Z,99770.89
2018-06-03T15:44:22.092Z,99767.53
2018-06-03T15:46:55.042Z,99760.83
2018-06-03T15:49:28.127Z,99760.34
2018-06-03T15:52:01.043Z,99760.77
2018-06-03T15:54:34.053Z,99761.23
2018-06-03T15:57:06.961Z,99769.77
2018-06-03T15:59:41.029Z,99765.21
2018-06-03T16:02:14.203Z,99764.94
2018-06-03T16:04:47.377Z,99764.17
2018-06-03T16:07:20.521Z,99760.93
2018-06-03T16:09:53.709Z,99753.11
2018-06-03T16:12:26.932Z,99756.34
2018-06-03T16:14:59.746Z,99746.33
2018-06-03T16:17:32.804Z,99748.52
2018-06-03T16:20:05.878Z,99745.63
2018-06-03T16:22:39.104Z,99741.70
2018-06-03T16:25:12.128Z,99710.25
2018-06-03T16:27:45.446Z,99738.09
2018-06-03T16:30:18.481Z,99732.20
2018-06-03T16:32:51.773Z,99736.23
2018-06-03T16:35:24.956Z,99722.09
2018-06-03T16:37:58.397Z,99722.05
2018-06-03T16:40:31.706Z,99732.36
2018-06-03T16:43:05.676Z,99730.05
2018-06-03T16:45:38.782Z,99715.38
2018-06-03T16:48:12.155Z,99728.34
2018-06-03T16:53:16.017Z,99727.63
2018-06-03T16:55:49.534Z,99732.92
2018-06-03T16:58:22.451Z,99736.31
2018-06-03T17:00:55.404Z,99727.02
2018-06-03T17:03:28.735Z,99732.13
2018-06-03T17:06:01.712Z,99730.37
2018-06-03T17:08:34.717Z,99721.11
2018-06-03T17:11:07.630Z,99724.44
2018-06-03T17:13:40.556Z,99720.38
2018-06-03T17:16:13.684Z,99714.13
2018-06-03T17:18:47.809Z,99711.72
2018-06-03T17:21:20.738Z,99713.81
2018-06-03T17:23:53.908Z,99703.19
2018-06-03T17:26:26.864Z,99704.69
2018-06-03T17:29:02.152Z,99706.98
2018-06-03T17:31:35.410Z,99706.05
2018-06-03T17:34:08.764Z,99700.94
2018-06-03T17:36:41.880Z,99701.33
2018-06-03T17:39:15.191Z,99700.72
2018-06-03T17:41:49.090Z,99695.44
2018-06-03T17:44:22.161Z,99697.63
2018-06-03T17:46:55.027Z,99695.74
2018-06-03T17:49:28.785Z,99695.42
2018-06-03T17:52:01.663Z,99687.41
2018-06-03T17:54:34.703Z,99696.91
2018-06-03T17:57:07.655Z,99689.45
2018-06-03T17:59:40.882Z,99690.22
2018-06-03T18:02:13.707Z,99684.66
2018-06-03T18:04:46.659Z,99676.22
2018-06-03T18:07:19.575Z,99679.92
2018-06-03T18:09:52.500Z,99688.68
2018-06-03T18:12:25.346Z,99686.75
2018-06-03T18:14:58.260Z,99686.59
2018-06-03T18:17:31.610Z,99681.11
2018-06-03T18:20:04.695Z,99690.17
2018-06-03T18:22:37.548Z,99685.51
2018-06-03T18:25:10.543Z,99687.95
2018-06-03T18:27:44.301Z,99685.36
2018-06-03T18:30:17.294Z,99692.30
2018-06-03T18:32:50.210Z,99686.44
2018-06-03T18:35:23.234Z,99684.73
2018-06-03T18:37:56.135Z,99685.61
2018-06-03T18:40:29.400Z,99684.73
2018-06-03T18:43:02.419Z,99682.33
2018-06-03T18:45:35.582Z,99680.05
2018-06-03T18:48:08.471Z,99675.84
2018-06-03T18:50:41.312Z,99683.91
2018-06-03T18:53:14.272Z,99681.09
2018-06-03T18:55:47.150Z,99671.47
2018-06-03T18:58:20.170Z,99669.88
2018-06-03T19:00:53.332Z,99672.80
2018-06-03T19:03:26.293Z,99673.05
2018-06-03T19:05:59.128Z,99670.88
2018-06-03T19:08:33.346Z,99665.03
2018-06-03T19:11:06.216Z,99665.03
2018-06-03T19:13:39.994Z,99661.19
2018-06-03T19:16:12.093Z,99660.64
2018-06-03T19:18:44.907Z,99667.19
2018-06-03T19:21:17.900Z,99675.64
2018-06-03T19:23:51.133Z,99668.80
2018-06-03T19:26:23.960Z,99663.77
2018-06-03T19:28:59.285Z,99660.41
2018-06-03T19:31:32.232Z,99667.48
2018-06-03T19:34:05.143Z,99661.53
2018-06-03T19:36:38.255Z,99664.83
2018-06-03T19:39:11.462Z,99667.56
2018-06-03T19:41:44.384Z,99667.06
2018-06-03T19:44:17.303Z,99673.16
2018-06-03T19:46:50.221Z,99671.59
2018-06-03T19:49:23.114Z,99673.04
2018-06-03T19:51:56.848Z,99674.41
2018-06-03T19:54:29.731Z,99670.94
2018-06-03T19:57:02.694Z,99676.17
2018-06-03T19:59:36.989Z,99682.47
2018-06-03T20:02:09.054Z,99677.34
2018-06-03T20:04:42.017Z,99684.48
2018-06-03T20:07:15.381Z,99685.55
2018-06-03T20:09:49.281Z,99686.95
2018-06-03T20:12:20.289Z,99687.25
2018-06-03T20:14:51.444Z,99690.00
2018-06-03T20:17:22.564Z,99683.14
2018-06-03T20:19:55.812Z,99680.44
2018-06-03T20:22:26.903Z,99685.08
2018-06-03T20:24:58.931Z,99684.81
2018-06-03T20:27:30.391Z,99687.30
2018-06-03T20:30:03.672Z,99688.36
2018-06-03T20:32:35.962Z,99679.61
2018-06-03T20:35:06.984Z,99689.44
2018-06-03T20:37:39.047Z,99601.14
2018-06-03T20:40:10.769Z,99693.53
2018-06-03T20:42:42.108Z,99687.53
2018-06-03T20:45:15.157Z,99694.34
2018-06-03T20:47:46.238Z,99687.25
2018-06-03T20:50:18.206Z,99687.53
2018-06-03T20:52:50.573Z,99682.33
2018-06-03T20:55:21.605Z,99682.33
2018-06-03T20:57:53.560Z,99674.93
2018-06-03T21:00:25.537Z,99679.56
2018-06-03T21:02:57.395Z,99682.59
2018-06-03T21:05:28.808Z,99682.27
2018-06-03T21:08:00.716Z,99683.38
2018-06-03T21:10:30.936Z,99690.17
2018-06-03T21:13:03.210Z,99683.59
2018-06-03T21:15:35.139Z,99686.86
2018-06-03T21:18:05.354Z,99686.28
2018-06-03T21:20:37.667Z,99690.61
2018-06-03T21:23:07.892Z,99695.28
2018-06-03T21:25:38.127Z,99690.36
2018-06-03T21:28:10.509Z,99695.82
2018-06-03T21:30:41.201Z,99694.17
2018-06-03T21:33:13.272Z,99696.56
2018-06-03T21:35:44.516Z,99686.39
2018-06-03T21:38:16.650Z,99698.19
2018-06-03T21:40:47.826Z,99694.58
2018-06-03T21:43:21.900Z,99695.44
2018-06-03T21:45:52.174Z,99685.89
2018-06-03T21:48:22.386Z,99688.37
2018-06-03T21:50:53.625Z,99689.98
2018-06-03T21:53:23.806Z,99688.58
2018-06-03T21:55:57.118Z,99679.85
2018-06-03T21:58:29.829Z,99683.95
2018-06-03T22:01:01.896Z,99682.01
2018-06-03T22:06:02.910Z,99684.48
2018-06-03T22:08:33.056Z,99691.01
2018-06-03T22:11:03.310Z,99689.34
2018-06-03T22:13:36.807Z,99689.98
2018-06-03T22:16:07.216Z,99684.47
2018-06-03T22:18:39.198Z,99683.59
2018-06-03T22:21:10.025Z,99681.08
2018-06-03T22:23:42.328Z,99682.48
2018-06-03T22:26:12.585Z,99688.47
2018-06-03T22:28:45.114Z,99584.09
2018-06-03T22:31:15.347Z,99690.34
2018-06-03T22:33:45.937Z,99685.97
2018-06-03T22:36:16.131Z,99697.97
2018-06-03T22:38:46.395Z,99642.73
2018-06-03T22:41:16.707Z,99692.80
2018-06-03T22:43:48.794Z,99689.47
2018-06-03T22:46:19.469Z,99699.30
2018-06-03T22:48:49.621Z,99693.60
2018-06-03T22:51:19.808Z,99690.82
2018-06-03T22:53:50.011Z,99687.01
2018-06-03T22:56:20.184Z,99688.47
2018-06-03T22:58:50.841Z,99679.76
2018-06-03T23:01:20.919Z,99684.64
2018-06-03T23:03:51.364Z,99671.52
2018-06-03T23:06:22.008Z,99675.61
2018-06-03T23:08:52.538Z,99665.80
2018-06-03T23:11:25.690Z,99674.22
2018-06-03T23:13:56.329Z,99676.74
2018-06-03T23:16:28.526Z,99674.86
2018-06-03T23:19:00.922Z,99675.63
2018-06-03T23:21:33.216Z,99667.45
2018-06-03T23:24:03.763Z,99654.62
2018-06-03T23:26:34.301Z,99660.14
2018-06-03T23:29:04.840Z,99655.16
2018-06-03T23:31:35.742Z,99655.47
2018-06-03T23:34:06.267Z,99659.53
2018-06-03T23:36:36.699Z,99656.80
2018-06-03T23:39:09.500Z,99665.00
2018-06-03T23:41:40.123Z,99657.66
2018-06-03T23:44:12.399Z,99646.75
2018-06-03T23:46:43.138Z,99648.39
2018-06-03T23:49:15.576Z,99645.67
2018-06-03T23:51:48.279Z,99651.36
2018-06-03T23:54:18.818Z,99640.97
2018-06-03T23:56:49.257Z,99643.94
2018-06-03T23:59:25.005Z,99637.09
